METAR Data
IDs: Format: Raw Decoded Include TAF

Data at: 1620 UTC 03 Dec 2021

KONP 031555Z AUTO 03008KT 10SM CLR 03/00 A3025 RMK AO2
KONP 031535Z AUTO 07006KT 10SM CLR 03/00 A3025 RMK AO2
KONP 031515Z AUTO 05007KT 10SM CLR 02/01 A3026 RMK AO2
KONP 031455Z AUTO 08006KT 10SM CLR 02/01 A3026 RMK AO2
KONP 031435Z AUTO 08009KT 10SM CLR 03/01 A3027 RMK AO2
KONP 031415Z AUTO 07008KT 10SM CLR 03/01 A3027 RMK AO2
KONP 031355Z AUTO 08005KT 10SM CLR 02/01 A3029 RMK AO2
KONP 031335Z AUTO 07005KT 10SM CLR 02/01 A3028 RMK AO2
KONP 031315Z AUTO 07007KT 10SM CLR 02/01 A3029 RMK AO2
KONP 031255Z AUTO 05006KT 10SM CLR 02/01 A3029 RMK AO2
KONP 031235Z AUTO 07005KT 10SM CLR 03/01 A3029 RMK AO2
KONP 031215Z AUTO 08005KT 10SM CLR 03/02 A3029 RMK AO2
KONP 031155Z AUTO 06007KT 10SM CLR 03/02 A3030 RMK AO2
KONP 031135Z AUTO 06006KT 10SM CLR 03/02 A3030 RMK AO2
KONP 031115Z AUTO 05006KT 10SM CLR 03/02 A3031 RMK AO2
KONP 031055Z AUTO 07006KT 10SM CLR 03/02 A3030 RMK AO2
KONP 031035Z AUTO 08006KT 10SM CLR 03/02 A3032 RMK AO2
KONP 031015Z AUTO 05003KT 10SM CLR 03/02 A3032 RMK AO2
KONP 030955Z AUTO 06005KT 10SM CLR 03/02 A3032 RMK AO2
KONP 030935Z AUTO 06006KT 10SM CLR 04/02 A3032 RMK AO2
KONP 030915Z AUTO 04005KT 10SM CLR 04/03 RMK AO2
KONP 030855Z AUTO 05004KT 10SM CLR 05/03 RMK AO2
KONP 030835Z AUTO 07006KT 10SM CLR 05/04 A3032 RMK AO2
KONP 030815Z AUTO 06006KT 10SM CLR 05/03 A3034 RMK AO2
KONP 030755Z AUTO 04004KT 10SM CLR 05/04 A3034 RMK AO2
KONP 030735Z AUTO 04005KT 10SM CLR 05/04 A3033 RMK AO2
KONP 030715Z AUTO 04005KT 10SM CLR 05/04 RMK AO2
KONP 030655Z AUTO 05005KT 10SM CLR 05/04 RMK AO2
KONP 030635Z AUTO 05004KT 10SM CLR 05/04 A3034 RMK AO2
KONP 030615Z AUTO 02004KT 10SM CLR 05/04 A3034 RMK AO2
KONP 030555Z AUTO 03003KT 10SM CLR 05/04 A3034 RMK AO2
KONP 030535Z AUTO 03005KT 10SM CLR 05/04 A3033 RMK AO2
KONP 030515Z AUTO 03004KT 10SM CLR 04/03 A3033 RMK AO2
KONP 030455Z AUTO 07003KT 10SM CLR 05/03 A3033 RMK AO2
KONP 030435Z AUTO 00000KT 10SM SCT032 05/04 A3034 RMK AO2
KONP 030415Z AUTO 06003KT 10SM OVC030 06/05 A3033 RMK AO2
KONP 030355Z AUTO 08003KT 10SM OVC032 06/05 A3033 RMK AO2
KONP 030335Z AUTO 00000KT 10SM OVC034 06/05 A3033 RMK AO2
KONP 030315Z AUTO 08004KT 10SM BKN034 05/04 A3033 RMK AO2
KONP 030255Z AUTO 04004KT 10SM CLR 06/04 A3033 RMK AO2
KONP 030235Z AUTO 01004KT 10SM CLR 07/05 RMK AO2
KONP 030215Z AUTO 02006KT 10SM CLR 07/05 RMK AO2
KONP 030155Z AUTO 01006KT 10SM CLR 07/05 RMK AO2
KONP 030135Z AUTO 02005KT 10SM CLR 07/04 A3033 RMK AO2
KONP 030115Z AUTO 01005KT 10SM CLR 07/04 A3033 RMK AO2
KONP 030055Z AUTO 02004KT 10SM CLR 08/04 A3033 RMK AO2
KONP 030035Z AUTO 01005KT 10SM CLR 08/04 A3033 RMK AO2
KONP 030015Z AUTO 01008KT 7SM CLR 09/04 A3034 RMK AO2
KONP 022355Z AUTO 35008KT 7SM CLR 10/05 A3034 RMK AO2
KONP 022335Z AUTO 36007KT 7SM CLR 10/05 A3034 RMK AO2
KONP 022315Z AUTO 35010KT 7SM CLR 10/06 A3033 RMK AO2
KONP 022255Z AUTO 36007KT 7SM CLR 10/06 A3033 RMK AO2
KONP 022235Z AUTO 35009KT 7SM CLR 10/06 A3033 RMK AO2
KONP 022215Z AUTO 36009KT 7SM CLR 10/06 A3033 RMK AO2
KONP 022155Z AUTO 36010KT 7SM CLR 11/06 A3034 RMK AO2
KONP 022135Z AUTO 34013G18KT 7SM CLR 11/06 A3034 RMK AO2
KONP 022115Z AUTO 34013G17KT 7SM CLR 11/06 A3034 RMK AO2
KONP 022055Z AUTO 34012G16KT 7SM CLR 11/06 A3034 RMK AO2
KONP 022035Z AUTO 35014G17KT 7SM CLR 10/06 A3034 RMK AO2
KONP 022015Z AUTO 36009G15KT 7SM SCT039 10/07 A3034 RMK AO2
KONP 021955Z AUTO 35011KT 7SM SCT018 SCT032 BKN041 11/07 A3035 RMK AO2
KONP 021935Z AUTO 35006KT 5SM HZ SCT018 SCT032 OVC039 11/08 A3035 RMK AO2
KONP 021915Z AUTO 36005KT 5SM BR OVC037 10/08 A3036 RMK AO2
KONP 021855Z AUTO 35008KT 7SM SCT015 SCT024 OVC035 10/08 A3036 RMK AO2
KONP 021835Z AUTO 35007KT 4SM BR SCT015 BKN023 OVC035 10/09 A3036 RMK AO2
KONP 021815Z AUTO 36004KT 5SM BR SCT010 BKN015 OVC035 10/08 A3036 RMK AO2
KONP 021755Z AUTO 01004KT 5SM BR BKN011 BKN017 OVC022 10/09 A3035 RMK AO2
KONP 021735Z AUTO 00000KT 5SM BR SCT014 BKN020 BKN029 10/10 A3035 RMK AO2
KONP 021715Z AUTO 00000KT 5SM BR SCT018 SCT023 BKN034 10/09 A3034 RMK AO2
KONP 021655Z AUTO 00000KT 5SM BR BKN016 OVC023 10/09 A3035 RMK AO2
KONP 021635Z AUTO 00000KT 5SM BR BKN014 OVC031 09/08 A3034 RMK AO2
KONP 021615Z AUTO 03003KT 5SM BR SCT014 SCT019 OVC029 09/08 A3033 RMK AO2
KONP 021555Z AUTO 02003KT 5SM BR SCT014 OVC029 08/08 A3032 RMK AO2
KONP 021535Z AUTO 05003KT 5SM BR SCT016 OVC027 08/08 A3032 RMK AO2
KONP 021515Z AUTO 00000KT 7SM SCT014 BKN027 08/08 A3032 RMK AO2
KONP 021455Z AUTO 00000KT 7SM BKN027 08/08 A3031 RMK AO2
KONP 021435Z AUTO 00000KT 7SM SCT015 BKN025 08/08 A3030 RMK AO2
KONP 021415Z AUTO 04003KT 7SM SCT015 OVC025 08/08 A3030 RMK AO2
KONP 021355Z AUTO 04003KT 7SM SCT015 BKN023 08/08 A3029 RMK AO2
KONP 021335Z AUTO 04003KT 5SM BR BKN017 OVC023 10/09 A3029 RMK AO2
KONP 021315Z AUTO 35005KT 7SM BKN013 OVC017 10/09 A3030 RMK AO2
KONP 021255Z AUTO 35005KT 4SM -RA BKN011 OVC014 10/10 A3030 RMK AO2
KONP 021235Z AUTO 36004KT 5SM BR OVC009 10/10 A3029 RMK AO2
KONP 021215Z AUTO 36007KT 4SM BR SCT006 OVC011 10/10 A3028 RMK AO2
KONP 021155Z AUTO 36005KT 5SM BR SCT004 OVC009 10/10 A3028 RMK AO2
KONP 021135Z AUTO 35005KT 2 1/2SM BR OVC002 10/10 A3027 RMK AO2
KONP 021115Z AUTO 35008KT 1 3/4SM BR OVC002 10/10 A3027 RMK AO2
KONP 021055Z AUTO 34007KT 1 1/4SM BR OVC002 10/10 A3027 RMK AO2
KONP 021035Z AUTO 34011G15KT 1SM DZ OVC004 10/10 A3027 RMK AO2
KONP 021015Z AUTO 35005KT 1 1/2SM BR OVC004 10/10 A3026 RMK AO2
KONP 020955Z AUTO 00000KT 5SM BR OVC002 10/10 A3026 RMK AO2 P0001
KONP 020935Z AUTO 02004KT 1 3/4SM -DZ OVC002 10/10 A3026 RMK AO2 P0001
KONP 020915Z AUTO 00000KT 1SM DZ OVC004 10/10 A3027 RMK AO2
KONP 020855Z AUTO 00000KT 1 1/2SM BR OVC004 10/10 A3027 RMK AO2 P0001
KONP 020835Z AUTO 00000KT 1 1/4SM DZ OVC004 10/10 A3027 RMK AO2 P0001
KONP 020815Z AUTO 00000KT 1 1/4SM BR OVC004 10/10 A3027 RMK AO2
KONP 020755Z AUTO 00000KT 1 3/4SM BR OVC004 10/10 A3027 RMK AO2
KONP 020735Z AUTO 00000KT 1SM -RA OVC004 10/10 A3027 RMK AO2
KONP 020715Z AUTO 00000KT 1SM BR OVC004 10/10 A3027 RMK AO2
KONP 020655Z AUTO 00000KT 1 1/2SM BR OVC004 10/10 A3026 RMK AO2 P0001
KONP 020635Z AUTO 00000KT 1 1/4SM BR OVC004 10/10 A3026 RMK AO2
KONP 020615Z AUTO 00000KT 1 1/4SM BR OVC004 10/10 A3026 RMK AO2
KONP 020555Z AUTO 00000KT 1 1/4SM BR OVC004 10/10 A3026 RMK AO2
KONP 020535Z AUTO 00000KT 1 1/2SM BR OVC004 10/10 A3025 RMK AO2
KONP 020515Z AUTO 00000KT 1 1/4SM BR OVC004 10/10 A3025 RMK AO2
KONP 020455Z AUTO 00000KT 2 1/2SM BR OVC004 10/10 A3024 RMK AO2
KONP 020435Z AUTO 00000KT 4SM BR OVC004 10/10 A3025 RMK AO2